sensor_id;sensor_type;location;lat;lon;timestamp;P1;durP1;ratioP1;P2;durP2;ratioP2
67051;SDS011;53957;47.222;18.670;2022-12-18T08:46:22;40.12;;;18.45;;
67051;SDS011;53957;47.222;18.670;2022-12-18T08:57:47;35.95;;;18.40;;
67051;SDS011;53957;47.222;18.670;2022-12-18T09:01:26;32.92;;;18.87;;
67051;SDS011;53957;47.222;18.670;2022-12-18T09:05:02;33.25;;;18.40;;
67051;SDS011;53957;47.222;18.670;2022-12-18T09:08:38;33.40;;;19.08;;
67051;SDS011;53957;47.222;18.670;2022-12-18T09:12:18;32.30;;;17.70;;
67051;SDS011;53957;47.222;18.670;2022-12-18T09:15:54;39.45;;;18.50;;
67051;SDS011;53957;47.222;18.670;2022-12-18T09:19:19;35.10;;;18.77;;
67051;SDS011;53957;47.222;18.670;2022-12-18T09:22:53;38.00;;;20.33;;
67051;SDS011;53957;47.222;18.670;2022-12-18T09:26:39;33.30;;;16.15;;
67051;SDS011;53957;47.222;18.670;2022-12-18T09:30:24;33.47;;;18.60;;
67051;SDS011;53957;47.222;18.670;2022-12-18T09:34:23;30.20;;;16.27;;
67051;SDS011;53957;47.222;18.670;2022-12-18T09:37:51;35.95;;;20.48;;
67051;SDS011;53957;47.222;18.670;2022-12-18T09:45:32;32.72;;;17.40;;
67051;SDS011;53957;47.222;18.670;2022-12-18T09:49:22;34.42;;;16.75;;
67051;SDS011;53957;47.222;18.670;2022-12-18T09:53:06;35.20;;;17.77;;
67051;SDS011;53957;47.222;18.670;2022-12-18T09:56:58;39.47;;;19.52;;
67051;SDS011;53957;47.222;18.670;2022-12-18T10:11:36;27.73;;;17.42;;
67051;SDS011;53957;47.222;18.670;2022-12-18T11:38:58;33.80;;;16.40;;
67051;SDS011;53957;47.222;18.670;2022-12-18T11:42:12;14.57;;;10.30;;
67051;SDS011;53957;47.222;18.670;2022-12-18T11:45:26;28.48;;;14.45;;
67051;SDS011;53957;47.222;18.670;2022-12-18T11:59:05;34.00;;;14.77;;
67051;SDS011;53957;47.222;18.670;2022-12-18T14:38:59;27.60;;;14.13;;
67051;SDS011;53957;47.222;18.670;2022-12-18T15:39:34;22.02;;;12.48;;
67051;SDS011;53957;47.222;18.670;2022-12-18T15:43:04;22.05;;;12.30;;
67051;SDS011;53957;47.222;18.670;2022-12-18T15:46:46;22.08;;;12.65;;
67051;SDS011;53957;47.222;18.670;2022-12-18T15:50:10;20.95;;;11.82;;
67051;SDS011;53957;47.222;18.670;2022-12-18T15:53:33;18.58;;;12.63;;
67051;SDS011;53957;47.222;18.670;2022-12-18T15:57:16;21.30;;;12.13;;
67051;SDS011;53957;47.222;18.670;2022-12-18T16:00:45;24.17;;;12.55;;
67051;SDS011;53957;47.222;18.670;2022-12-18T16:04:29;23.00;;;12.35;;
67051;SDS011;53957;47.222;18.670;2022-12-18T16:08:11;25.40;;;14.87;;
67051;SDS011;53957;47.222;18.670;2022-12-18T16:12:17;44.38;;;19.55;;
67051;SDS011;53957;47.222;18.670;2022-12-18T16:16:04;32.97;;;14.30;;
67051;SDS011;53957;47.222;18.670;2022-12-18T16:19:43;28.33;;;16.75;;
67051;SDS011;53957;47.222;18.670;2022-12-18T16:34:49;48.83;;;25.12;;
67051;SDS011;53957;47.222;18.670;2022-12-18T16:38:24;40.42;;;23.87;;
67051;SDS011;53957;47.222;18.670;2022-12-18T16:42:12;54.13;;;27.02;;
67051;SDS011;53957;47.222;18.670;2022-12-18T16:45:50;52.13;;;25.58;;
67051;SDS011;53957;47.222;18.670;2022-12-18T16:49:25;49.47;;;23.23;;
67051;SDS011;53957;47.222;18.670;2022-12-18T16:53:01;49.58;;;25.23;;
67051;SDS011;53957;47.222;18.670;2022-12-18T16:56:04;45.58;;;23.45;;
67051;SDS011;53957;47.222;18.670;2022-12-18T16:59:28;53.10;;;27.27;;
67051;SDS011;53957;47.222;18.670;2022-12-18T17:06:47;40.05;;;22.35;;
67051;SDS011;53957;47.222;18.670;2022-12-18T17:10:00;36.17;;;20.30;;
67051;SDS011;53957;47.222;18.670;2022-12-18T17:13:25;36.53;;;18.95;;
67051;SDS011;53957;47.222;18.670;2022-12-18T17:16:49;31.92;;;16.12;;
67051;SDS011;53957;47.222;18.670;2022-12-18T17:20:34;26.20;;;14.80;;
67051;SDS011;53957;47.222;18.670;2022-12-18T17:23:37;26.73;;;12.80;;
67051;SDS011;53957;47.222;18.670;2022-12-18T17:26:42;28.92;;;13.70;;
67051;SDS011;53957;47.222;18.670;2022-12-18T17:29:45;26.08;;;15.73;;
67051;SDS011;53957;47.222;18.670;2022-12-18T17:32:50;27.17;;;15.05;;
67051;SDS011;53957;47.222;18.670;2022-12-18T17:36:13;34.03;;;15.05;;
67051;SDS011;53957;47.222;18.670;2022-12-18T17:39:21;26.52;;;14.25;;
67051;SDS011;53957;47.222;18.670;2022-12-18T17:42:24;29.40;;;14.80;;
67051;SDS011;53957;47.222;18.670;2022-12-18T17:45:28;27.98;;;15.63;;
67051;SDS011;53957;47.222;18.670;2022-12-18T17:48:33;20.90;;;13.30;;
67051;SDS011;53957;47.222;18.670;2022-12-18T17:51:36;27.70;;;14.82;;
67051;SDS011;53957;47.222;18.670;2022-12-18T17:54:44;29.05;;;15.13;;
67051;SDS011;53957;47.222;18.670;2022-12-18T17:57:51;31.62;;;15.60;;
67051;SDS011;53957;47.222;18.670;2022-12-18T18:01:03;22.27;;;13.50;;
67051;SDS011;53957;47.222;18.670;2022-12-18T18:04:07;27.92;;;13.60;;
67051;SDS011;53957;47.222;18.670;2022-12-18T18:07:11;25.02;;;15.05;;
67051;SDS011;53957;47.222;18.670;2022-12-18T18:13:52;23.27;;;14.35;;
67051;SDS011;53957;47.222;18.670;2022-12-18T18:17:13;20.75;;;14.77;;
67051;SDS011;53957;47.222;18.670;2022-12-18T18:20:39;23.55;;;13.13;;
67051;SDS011;53957;47.222;18.670;2022-12-18T18:23:43;27.37;;;14.07;;
67051;SDS011;53957;47.222;18.670;2022-12-18T19:16:36;23.35;;;13.52;;
67051;SDS011;53957;47.222;18.670;2022-12-18T19:19:39;27.30;;;13.98;;
67051;SDS011;53957;47.222;18.670;2022-12-18T19:22:42;24.15;;;12.52;;
67051;SDS011;53957;47.222;18.670;2022-12-18T19:26:00;24.77;;;13.05;;
67051;SDS011;53957;47.222;18.670;2022-12-18T19:29:25;24.50;;;13.85;;
67051;SDS011;53957;47.222;18.670;2022-12-18T19:32:29;24.02;;;11.35;;
67051;SDS011;53957;47.222;18.670;2022-12-18T19:35:32;30.12;;;14.65;;
67051;SDS011;53957;47.222;18.670;2022-12-18T19:38:36;23.45;;;12.95;;
67051;SDS011;53957;47.222;18.670;2022-12-18T19:41:40;24.55;;;13.62;;
67051;SDS011;53957;47.222;18.670;2022-12-18T19:44:44;27.40;;;14.02;;
67051;SDS011;53957;47.222;18.670;2022-12-18T19:47:46;33.30;;;17.00;;
67051;SDS011;53957;47.222;18.670;2022-12-18T19:50:49;23.73;;;13.05;;
67051;SDS011;53957;47.222;18.670;2022-12-18T19:53:53;27.83;;;14.65;;
67051;SDS011;53957;47.222;18.670;2022-12-18T19:57:01;25.77;;;12.98;;
67051;SDS011;53957;47.222;18.670;2022-12-18T20:00:04;27.35;;;14.13;;
67051;SDS011;53957;47.222;18.670;2022-12-18T20:03:13;33.42;;;15.18;;
67051;SDS011;53957;47.222;18.670;2022-12-18T20:06:31;33.35;;;13.80;;
67051;SDS011;53957;47.222;18.670;2022-12-18T20:09:35;25.23;;;13.82;;
67051;SDS011;53957;47.222;18.670;2022-12-18T20:12:38;23.90;;;14.38;;
67051;SDS011;53957;47.222;18.670;2022-12-18T20:15:41;27.55;;;15.55;;
67051;SDS011;53957;47.222;18.670;2022-12-18T20:18:47;22.90;;;15.85;;
67051;SDS011;53957;47.222;18.670;2022-12-18T20:21:50;35.05;;;17.17;;
67051;SDS011;53957;47.222;18.670;2022-12-18T20:24:53;35.35;;;16.25;;
67051;SDS011;53957;47.222;18.670;2022-12-18T20:27:56;28.15;;;16.62;;
67051;SDS011;53957;47.222;18.670;2022-12-18T20:31:03;43.87;;;19.35;;
67051;SDS011;53957;47.222;18.670;2022-12-18T20:34:07;30.25;;;16.85;;
67051;SDS011;53957;47.222;18.670;2022-12-18T20:37:17;31.62;;;16.58;;
67051;SDS011;53957;47.222;18.670;2022-12-18T20:40:21;27.25;;;14.80;;
67051;SDS011;53957;47.222;18.670;2022-12-18T20:43:25;28.33;;;17.15;;
67051;SDS011;53957;47.222;18.670;2022-12-18T20:46:28;37.70;;;17.70;;
67051;SDS011;53957;47.222;18.670;2022-12-18T20:49:31;32.72;;;16.42;;
67051;SDS011;53957;47.222;18.670;2022-12-18T20:52:33;41.72;;;17.23;;
67051;SDS011;53957;47.222;18.670;2022-12-18T20:55:40;31.35;;;18.08;;
67051;SDS011;53957;47.222;18.670;2022-12-18T20:58:43;32.80;;;19.55;;
67051;SDS011;53957;47.222;18.670;2022-12-18T21:01:47;27.75;;;16.33;;
67051;SDS011;53957;47.222;18.670;2022-12-18T21:04:50;36.58;;;18.67;;
67051;SDS011;53957;47.222;18.670;2022-12-18T21:07:54;37.72;;;20.52;;
67051;SDS011;53957;47.222;18.670;2022-12-18T21:14:48;42.92;;;20.65;;
67051;SDS011;53957;47.222;18.670;2022-12-18T21:17:51;32.15;;;19.65;;
67051;SDS011;53957;47.222;18.670;2022-12-18T21:20:54;45.70;;;19.17;;
67051;SDS011;53957;47.222;18.670;2022-12-18T21:23:57;31.42;;;16.70;;
67051;SDS011;53957;47.222;18.670;2022-12-18T21:27:00;30.15;;;19.55;;
67051;SDS011;53957;47.222;18.670;2022-12-18T21:30:03;39.95;;;21.12;;
67051;SDS011;53957;47.222;18.670;2022-12-18T21:33:07;40.40;;;20.90;;
67051;SDS011;53957;47.222;18.670;2022-12-18T21:36:10;33.60;;;19.67;;
67051;SDS011;53957;47.222;18.670;2022-12-18T21:39:14;43.80;;;19.23;;
67051;SDS011;53957;47.222;18.670;2022-12-18T21:42:18;34.45;;;20.98;;
67051;SDS011;53957;47.222;18.670;2022-12-18T21:45:39;28.67;;;18.25;;
67051;SDS011;53957;47.222;18.670;2022-12-18T21:48:42;41.92;;;21.15;;
67051;SDS011;53957;47.222;18.670;2022-12-18T21:51:46;41.28;;;23.38;;
67051;SDS011;53957;47.222;18.670;2022-12-18T21:54:50;44.33;;;20.98;;
67051;SDS011;53957;47.222;18.670;2022-12-18T21:57:53;38.65;;;23.08;;
67051;SDS011;53957;47.222;18.670;2022-12-18T22:00:56;39.95;;;24.17;;
67051;SDS011;53957;47.222;18.670;2022-12-18T22:03:59;43.50;;;24.60;;
67051;SDS011;53957;47.222;18.670;2022-12-18T22:07:02;39.22;;;20.23;;
67051;SDS011;53957;47.222;18.670;2022-12-18T22:10:06;40.92;;;21.15;;
67051;SDS011;53957;47.222;18.670;2022-12-18T22:13:10;38.70;;;21.55;;
67051;SDS011;53957;47.222;18.670;2022-12-18T22:16:13;40.47;;;24.15;;
67051;SDS011;53957;47.222;18.670;2022-12-18T22:19:16;34.13;;;21.52;;
67051;SDS011;53957;47.222;18.670;2022-12-18T22:22:19;47.72;;;20.70;;
67051;SDS011;53957;47.222;18.670;2022-12-18T22:25:22;37.38;;;21.25;;
67051;SDS011;53957;47.222;18.670;2022-12-18T22:28:25;35.83;;;20.83;;
67051;SDS011;53957;47.222;18.670;2022-12-18T22:31:46;37.80;;;21.67;;
67051;SDS011;53957;47.222;18.670;2022-12-18T22:34:49;40.65;;;20.20;;
67051;SDS011;53957;47.222;18.670;2022-12-18T22:37:52;26.45;;;18.10;;
67051;SDS011;53957;47.222;18.670;2022-12-18T22:40:55;33.10;;;18.05;;
67051;SDS011;53957;47.222;18.670;2022-12-18T22:43:58;47.88;;;21.48;;
67051;SDS011;53957;47.222;18.670;2022-12-18T22:47:01;50.95;;;22.10;;
67051;SDS011;53957;47.222;18.670;2022-12-18T22:50:09;32.08;;;21.55;;
67051;SDS011;53957;47.222;18.670;2022-12-18T22:53:18;28.95;;;20.10;;
67051;SDS011;53957;47.222;18.670;2022-12-18T22:56:21;27.50;;;16.15;;
67051;SDS011;53957;47.222;18.670;2022-12-18T22:59:24;36.33;;;20.60;;
67051;SDS011;53957;47.222;18.670;2022-12-18T23:02:27;31.17;;;17.52;;
67051;SDS011;53957;47.222;18.670;2022-12-18T23:05:30;38.47;;;19.58;;
67051;SDS011;53957;47.222;18.670;2022-12-18T23:08:33;29.20;;;18.15;;
67051;SDS011;53957;47.222;18.670;2022-12-18T23:11:36;35.60;;;19.37;;
67051;SDS011;53957;47.222;18.670;2022-12-18T23:14:39;37.38;;;19.98;;
67051;SDS011;53957;47.222;18.670;2022-12-18T23:17:42;46.15;;;22.05;;
67051;SDS011;53957;47.222;18.670;2022-12-18T23:20:44;35.92;;;20.20;;
67051;SDS011;53957;47.222;18.670;2022-12-18T23:23:49;40.88;;;20.92;;
67051;SDS011;53957;47.222;18.670;2022-12-18T23:26:52;32.80;;;20.27;;
67051;SDS011;53957;47.222;18.670;2022-12-18T23:29:55;40.40;;;20.67;;
67051;SDS011;53957;47.222;18.670;2022-12-18T23:32:59;35.97;;;19.23;;
67051;SDS011;53957;47.222;18.670;2022-12-18T23:36:03;32.78;;;21.27;;
67051;SDS011;53957;47.222;18.670;2022-12-18T23:39:06;37.20;;;19.42;;
67051;SDS011;53957;47.222;18.670;2022-12-18T23:42:09;35.28;;;20.73;;
67051;SDS011;53957;47.222;18.670;2022-12-18T23:45:14;35.25;;;17.77;;
67051;SDS011;53957;47.222;18.670;2022-12-18T23:48:19;48.40;;;24.80;;
67051;SDS011;53957;47.222;18.670;2022-12-18T23:51:22;29.37;;;19.52;;
67051;SDS011;53957;47.222;18.670;2022-12-18T23:54:27;32.08;;;18.62;;
67051;SDS011;53957;47.222;18.670;2022-12-18T23:57:34;39.15;;;19.75;;
